createdAt,value
2022-09-28T10:12:15.969Z,96750.86
2022-09-28T10:14:44.158Z,96750.59
2022-09-28T10:17:20.569Z,96755.81
2022-09-28T10:20:13.469Z,96745.45
2022-09-28T10:23:05.037Z,96732.38
2022-09-28T10:25:38.040Z,96723.67
2022-09-28T10:28:15.929Z,96730.30
2022-09-28T10:30:44.898Z,96732.48
2022-09-28T10:33:33.541Z,96729.48
2022-09-28T10:36:05.068Z,96723.67
2022-09-28T10:38:34.250Z,96719.73
2022-09-28T10:41:12.085Z,96715.50
2022-09-28T10:44:08.707Z,96721.00
2022-09-28T10:46:41.403Z,96721.23
2022-09-28T10:49:17.891Z,96708.58
2022-09-28T10:51:54.699Z,96703.65
2022-09-28T10:54:30.126Z,96694.64
2022-09-28T10:57:00.869Z,96692.25
2022-09-28T10:59:51.837Z,96683.68
2022-09-28T11:02:36.609Z,96689.39
2022-09-28T11:05:18.574Z,96683.77
2022-09-28T11:07:48.199Z,96679.65
2022-09-28T11:10:26.623Z,96675.90
2022-09-28T11:12:58.054Z,96672.73
2022-09-28T11:15:33.362Z,96676.74
2022-09-28T11:18:28.263Z,96674.50
2022-09-28T11:21:14.876Z,96670.52
2022-09-28T11:24:27.473Z,96664.88
2022-09-28T11:27:00.334Z,96658.52
2022-09-28T11:29:44.327Z,96655.41
2022-09-28T11:32:42.134Z,96657.04
2022-09-28T11:36:05.427Z,96658.15
2022-09-28T11:38:42.258Z,96654.19
2022-09-28T11:41:43.313Z,96652.02
2022-09-28T11:44:39.852Z,96650.50
2022-09-28T11:47:30.779Z,96647.87
2022-09-28T11:50:23.554Z,96646.60
2022-09-28T11:52:59.401Z,96644.70
2022-09-28T11:55:34.555Z,96640.46
2022-09-28T11:58:26.398Z,96634.67
2022-09-28T12:01:26.062Z,96639.52
2022-09-28T12:04:20.479Z,96633.91
2022-09-28T12:07:12.631Z,96634.94
2022-09-28T12:09:58.576Z,96634.23
2022-09-28T12:12:37.395Z,96638.27
2022-09-28T12:16:07.751Z,96629.59
2022-09-28T12:18:45.044Z,96633.23
2022-09-28T12:21:24.806Z,96636.59
2022-09-28T12:24:27.833Z,96632.84
2022-09-28T12:27:10.486Z,96640.59
2022-09-28T12:29:48.314Z,96635.14
2022-09-28T12:32:27.881Z,96642.22
2022-09-28T12:34:56.572Z,96633.16
2022-09-28T12:37:41.381Z,96635.35
2022-09-28T12:40:21.552Z,96634.33
2022-09-28T12:43:10.857Z,96627.11
2022-09-28T12:46:11.978Z,96615.48
2022-09-28T12:52:02.376Z,96604.50
2022-09-28T12:54:34.497Z,96609.69
2022-09-28T12:57:11.028Z,96605.17
2022-09-28T12:59:47.552Z,96609.40
2022-09-28T13:02:24.198Z,96603.83
2022-09-28T13:05:22.979Z,96608.67
2022-09-28T13:07:54.148Z,96600.18
2022-09-28T13:10:40.685Z,96591.65
2022-09-28T13:13:30.553Z,96600.17
2022-09-28T13:15:58.309Z,96595.86
2022-09-28T13:18:27.580Z,96599.86
2022-09-28T13:21:23.113Z,96599.31
2022-09-28T13:24:00.857Z,96597.05
2022-09-28T13:26:40.525Z,96594.99
2022-09-28T13:29:17.763Z,96599.20
2022-09-28T13:31:58.254Z,96597.30
2022-09-28T13:34:29.111Z,96596.85
2022-09-28T13:37:18.173Z,96599.04
2022-09-28T13:39:45.838Z,96595.15
2022-09-28T13:42:59.021Z,96592.92
2022-09-28T13:45:35.750Z,96593.49
2022-09-28T13:48:11.546Z,96589.34
2022-09-28T13:51:07.824Z,96584.59
2022-09-28T13:54:00.143Z,96588.83
2022-09-28T13:56:49.454Z,96577.96
2022-09-28T13:59:27.262Z,96583.19
2022-09-28T14:02:06.775Z,96579.22
2022-09-28T14:04:55.254Z,96574.23
2022-09-28T14:07:57.333Z,96574.52
2022-09-28T14:10:54.926Z,96571.43
2022-09-28T14:13:40.758Z,96568.07
2022-09-28T14:16:36.297Z,96565.13
2022-09-28T14:19:19.034Z,96555.96
2022-09-28T14:22:26.735Z,96556.75
2022-09-28T14:25:17.387Z,96554.77
2022-09-28T14:28:06.727Z,96559.89
2022-09-28T14:30:43.754Z,96557.34
2022-09-28T14:33:26.809Z,96557.12
2022-09-28T14:35:59.737Z,96554.98
2022-09-28T14:39:05.655Z,96551.86
2022-09-28T14:41:36.555Z,96554.06
2022-09-28T14:44:11.291Z,96551.84
2022-09-28T14:46:48.201Z,96547.89
2022-09-28T14:49:23.405Z,96548.42
2022-09-28T14:51:54.204Z,96548.71
2022-09-28T14:54:28.307Z,96547.01
2022-09-28T14:57:13.737Z,96543.06
2022-09-28T14:59:44.001Z,96536.76
2022-09-28T15:02:11.692Z,96534.79
2022-09-28T15:05:02.801Z,96535.15
2022-09-28T15:07:46.941Z,96533.62
2022-09-28T15:10:26.655Z,96534.52
2022-09-28T15:12:57.183Z,96529.33
2022-09-28T15:15:28.968Z,96530.06
2022-09-28T15:18:03.079Z,96536.58
2022-09-28T15:20:37.016Z,96546.83
2022-09-28T15:23:04.782Z,96549.23
2022-09-28T15:25:33.995Z,96551.36
2022-09-28T15:28:18.075Z,96556.67
2022-09-28T15:30:46.178Z,96561.23
2022-09-28T15:33:50.218Z,96564.29
2022-09-28T15:36:30.133Z,96564.11
2022-09-28T15:39:05.740Z,96571.23
2022-09-28T15:41:34.312Z,96584.42
2022-09-28T15:44:47.752Z,96590.75
2022-09-28T15:47:25.238Z,96572.08
2022-09-28T15:50:00.696Z,96571.67
2022-09-28T15:52:43.588Z,96559.10
2022-09-28T15:55:34.328Z,96573.27
2022-09-28T15:58:12.660Z,96579.23
2022-09-28T16:00:40.770Z,96568.56
2022-09-28T16:03:23.505Z,96556.48
2022-09-28T16:05:58.254Z,96555.28
2022-09-28T16:08:45.988Z,96557.27
2022-09-28T16:11:26.476Z,96555.02
2022-09-28T16:14:18.459Z,96548.14
2022-09-28T16:16:49.478Z,96555.91
2022-09-28T16:19:31.355Z,96557.27
2022-09-28T16:22:02.264Z,96568.84
2022-09-28T16:24:34.443Z,96566.94
2022-09-28T16:27:06.154Z,96565.09
2022-09-28T16:29:41.318Z,96563.23
2022-09-28T16:32:27.391Z,96569.95
2022-09-28T16:35:10.933Z,96563.92
2022-09-28T16:37:43.003Z,96556.88
2022-09-28T16:40:14.071Z,96557.62
2022-09-28T16:42:48.926Z,96562.10
2022-09-28T16:45:23.865Z,96567.08
2022-09-28T16:47:52.917Z,96569.27
2022-09-28T16:50:22.214Z,96573.05
2022-09-28T16:53:17.887Z,96566.24
2022-09-28T16:55:49.873Z,96572.13
2022-09-28T16:58:18.633Z,96577.12
2022-09-28T17:00:46.378Z,96581.52
2022-09-28T17:03:18.257Z,96583.83
2022-09-28T17:05:48.014Z,96591.83
2022-09-28T17:08:18.402Z,96597.55
2022-09-28T17:11:22.781Z,96597.06
2022-09-28T17:13:49.988Z,96600.86
2022-09-28T17:16:43.575Z,96600.14
2022-09-28T17:19:20.768Z,96603.53
2022-09-28T17:21:49.246Z,96605.21
2022-09-28T17:24:18.070Z,96609.30
2022-09-28T17:26:49.315Z,96610.04
2022-09-28T17:29:17.640Z,96616.02
2022-09-28T17:31:46.703Z,96624.42
2022-09-28T17:34:16.257Z,96637.45
2022-09-28T17:36:44.974Z,96635.30
2022-09-28T17:39:14.873Z,96628.50
2022-09-28T17:41:42.963Z,96623.44
2022-09-28T17:44:10.904Z,96622.02
2022-09-28T17:46:45.877Z,96625.52
2022-09-28T17:49:14.390Z,96644.90
2022-09-28T17:51:42.192Z,96665.72
2022-09-28T17:54:10.481Z,96664.50
2022-09-28T17:56:38.441Z,96650.06
2022-09-28T17:59:14.244Z,96652.42
2022-09-28T18:01:42.403Z,96653.21
2022-09-28T18:04:22.972Z,96658.61
2022-09-28T18:07:00.392Z,96656.63
2022-09-28T18:09:28.385Z,96660.59
2022-09-28T18:12:01.018Z,96664.32
2022-09-28T18:14:28.927Z,96676.35
2022-09-28T18:16:57.293Z,96687.42
2022-09-28T18:19:28.587Z,96673.66
2022-09-28T18:22:01.455Z,96676.00
2022-09-28T18:24:29.877Z,96671.41
2022-09-28T18:26:57.742Z,96675.52
2022-09-28T18:29:26.714Z,96674.59
2022-09-28T18:31:55.992Z,96668.08
2022-09-28T18:34:23.793Z,96671.95
2022-09-28T18:36:51.866Z,96672.38
2022-09-28T18:39:19.749Z,96674.73
2022-09-28T18:41:47.677Z,96671.06
2022-09-28T18:44:15.621Z,96681.02
2022-09-28T18:46:43.705Z,96671.38
2022-09-28T18:49:11.622Z,96672.48
2022-09-28T18:51:39.592Z,96679.19
2022-09-28T18:54:07.658Z,96680.00
2022-09-28T18:56:37.387Z,96679.09
2022-09-28T18:59:11.742Z,96689.46
2022-09-28T19:01:41.973Z,96689.23
2022-09-28T19:04:11.040Z,96695.11
2022-09-28T19:06:41.356Z,96685.31
2022-09-28T19:09:09.404Z,96693.33
2022-09-28T19:11:44.591Z,96699.39
2022-09-28T19:14:15.135Z,96699.37
2022-09-28T19:16:45.093Z,96699.83
2022-09-28T19:19:15.612Z,96707.94
2022-09-28T19:21:43.523Z,96700.70
2022-09-28T19:24:16.199Z,96702.23
2022-09-28T19:26:45.203Z,96704.85
2022-09-28T19:29:13.626Z,96703.29
2022-09-28T19:31:43.569Z,96706.95
2022-09-28T19:34:13.520Z,96706.81
2022-09-28T19:36:42.624Z,96707.34
2022-09-28T19:39:14.942Z,96712.27
2022-09-28T19:41:47.872Z,96713.34
2022-09-28T19:44:27.572Z,96715.55
2022-09-28T19:47:00.725Z,96721.93
2022-09-28T19:49:33.086Z,96711.52
2022-09-28T19:52:12.793Z,96726.30
2022-09-28T19:54:56.930Z,96733.65
2022-09-28T19:57:27.732Z,96733.64
2022-09-28T20:00:01.642Z,96728.29
2022-09-28T20:02:34.547Z,96735.15
2022-09-28T20:05:02.940Z,96744.45
2022-09-28T20:07:33.145Z,96738.36
2022-09-28T20:10:01.459Z,96738.77
2022-09-28T20:12:31.953Z,96748.31
2022-09-28T20:14:59.780Z,96753.23
2022-09-28T20:17:27.674Z,96758.10
2022-09-28T20:19:55.559Z,96762.71
2022-09-28T20:22:23.775Z,96768.64
2022-09-28T20:24:51.759Z,96778.73
2022-09-28T20:27:22.101Z,96775.05
2022-09-28T20:29:53.653Z,96773.54
2022-09-28T20:32:21.426Z,96782.00
2022-09-28T20:34:49.137Z,96785.74
2022-09-28T20:37:17.635Z,96776.96
2022-09-28T20:39:45.473Z,96776.24
2022-09-28T20:42:15.546Z,96774.59
2022-09-28T20:44:43.995Z,96767.70
2022-09-28T20:47:11.755Z,96770.11
2022-09-28T20:49:39.534Z,96775.55
2022-09-28T20:52:07.368Z,96777.19
2022-09-28T20:54:35.147Z,96787.62
2022-09-28T20:57:02.942Z,96797.35
2022-09-28T20:59:31.498Z,96795.00
2022-09-28T21:01:59.284Z,96790.67
2022-09-28T21:04:27.220Z,96788.56
2022-09-28T21:06:54.968Z,96793.61
2022-09-28T21:09:22.914Z,96793.96
2022-09-28T21:11:50.706Z,96796.30
2022-09-28T21:14:18.609Z,96808.48
2022-09-28T21:16:46.353Z,96810.12
2022-09-28T21:19:14.179Z,96815.07
2022-09-28T21:21:42.026Z,96814.14
2022-09-28T21:24:10.022Z,96805.45
2022-09-28T21:26:39.080Z,96810.05
2022-09-28T21:29:12.358Z,96812.42
2022-09-28T21:31:45.781Z,96812.39
2022-09-28T21:34:18.675Z,96813.20
2022-09-28T21:36:48.262Z,96812.84
2022-09-28T21:39:16.103Z,96802.41
2022-09-28T21:41:44.565Z,96805.48
2022-09-28T21:44:12.413Z,96804.86
2022-09-28T21:46:40.289Z,96836.62
2022-09-28T21:49:09.884Z,96845.67
2022-09-28T21:51:38.176Z,96847.80
2022-09-28T21:54:06.093Z,96848.90
2022-09-28T21:56:33.928Z,96827.22
2022-09-28T21:59:01.752Z,96849.91
2022-09-28T22:01:29.665Z,96849.27
2022-09-28T22:03:57.794Z,96856.81
2022-09-28T22:06:28.251Z,96856.96
2022-09-28T22:08:56.795Z,96846.07
2022-09-28T22:11:27.823Z,96841.56
2022-09-28T22:13:58.371Z,96841.36
2022-09-28T22:16:30.817Z,96846.33
2022-09-28T22:18:59.532Z,96849.20
2022-09-28T22:21:30.634Z,96849.05
2022-09-28T22:24:01.101Z,96853.66
2022-09-28T22:26:31.753Z,96861.35
2022-09-28T22:29:02.177Z,96869.11
2022-09-28T22:31:32.568Z,96879.56
2022-09-28T22:34:01.394Z,96879.34
2022-09-28T22:36:30.074Z,96874.27
2022-09-28T22:38:59.428Z,96875.36
2022-09-28T22:41:27.281Z,96888.67
2022-09-28T22:43:55.693Z,96887.92
2022-09-28T22:46:27.077Z,96885.52
2022-09-28T22:48:57.244Z,96887.36
2022-09-28T22:51:27.821Z,96894.44
2022-09-28T22:53:56.650Z,96889.23
2022-09-28T22:56:25.168Z,96892.02
2022-09-28T22:58:53.157Z,96898.39
2022-09-28T23:01:23.565Z,96894.42
2022-09-28T23:03:53.056Z,96892.93
2022-09-28T23:06:24.116Z,96897.53
2022-09-28T23:08:53.247Z,96898.19
2022-09-28T23:11:21.351Z,96896.48
2022-09-28T23:13:59.473Z,96897.46
2022-09-28T23:16:27.992Z,96895.95
2022-09-28T23:18:56.397Z,96895.42
2022-09-28T23:21:26.679Z,96890.79
2022-09-28T23:24:00.978Z,96890.34
2022-09-28T23:26:36.872Z,96890.82
2022-09-28T23:29:04.821Z,96882.77
2022-09-28T23:31:33.309Z,96878.39
2022-09-28T23:34:04.369Z,96878.43
2022-09-28T23:36:33.563Z,96873.16
2022-09-28T23:39:01.764Z,96882.36
2022-09-28T23:41:30.056Z,96893.85
2022-09-28T23:43:57.902Z,96902.11
2022-09-28T23:46:25.803Z,96901.69
2022-09-28T23:48:53.796Z,96895.95
2022-09-28T23:51:21.683Z,96896.36
2022-09-28T23:53:49.618Z,96896.80
2022-09-28T23:56:17.525Z,96903.27
2022-09-28T23:58:45.292Z,96904.08
